Time;durP1;ratioP1;P1;durP2;ratioP2;P2;SDS_P1;SDS_P2;PMS_P1;PMS_P2;Temp;Humidity;BMP_temperature;BMP_pressure;BME280_temperature;BME280_humidity;BME280_pressure;Samples;Min_cycle;Max_cycle;Signal;HPM_P1;HPM_P2
2022/05/01 00:00:59;;;;;;;15.60;10.10;;;6.60;99.90;;;;;;4927254;29;20044;-76
2022/05/01 00:03:30;;;;;;;20.55;12.90;;;6.60;99.90;;;;;;4929158;29;20126;-76
2022/05/01 00:06:06;;;;;;;20.00;12.50;;;6.60;99.90;;;;;;4928108;29;20046;-76
2022/05/01 00:08:33;;;;;;;18.02;11.27;;;6.60;99.90;;;;;;4906306;29;20036;-76
2022/05/01 00:11:00;;;;;;;16.83;11.25;;;6.60;99.90;;;;;;4932141;29;20114;-76
2022/05/01 00:13:26;;;;;;;14.43;11.25;;;6.60;99.90;;;;;;4930606;29;20446;-76
2022/05/01 00:15:52;;;;;;;17.02;10.20;;;6.60;99.90;;;;;;4944912;28;20053;-76
2022/05/01 00:18:19;;;;;;;13.80;10.48;;;6.70;99.90;;;;;;4931558;29;20035;-76
2022/05/01 00:20:45;;;;;;;12.52;8.95;;;6.70;99.90;;;;;;4930895;29;20067;-76
2022/05/01 00:23:11;;;;;;;14.27;10.23;;;6.80;99.90;;;;;;4932683;29;20169;-76
2022/05/01 00:25:41;;;;;;;14.75;10.40;;;6.80;99.90;;;;;;4927263;29;20077;-76
2022/05/01 00:28:07;;;;;;;14.55;10.05;;;6.80;99.90;;;;;;4927428;29;20040;-76
2022/05/01 00:30:33;;;;;;;19.38;11.98;;;6.80;99.90;;;;;;4927576;29;20031;-76
2022/05/01 00:38:27;;;;;;;15.10;12.98;;;6.80;99.90;;;;;;4928693;29;20047;-76
2022/05/01 00:40:54;;;;;;;15.40;10.98;;;6.80;99.90;;;;;;4925104;29;20055;-76
2022/05/01 00:43:20;;;;;;;22.33;13.30;;;6.80;99.90;;;;;;4930701;29;20043;-76
2022/05/01 00:45:45;;;;;;;19.02;13.73;;;6.90;99.90;;;;;;4929573;29;20063;-76
2022/05/01 00:48:11;;;;;;;17.25;12.15;;;6.80;99.90;;;;;;4930671;29;20102;-76
2022/05/01 00:50:37;;;;;;;17.75;12.23;;;6.80;99.90;;;;;;4930974;29;20475;-76
2022/05/01 00:53:05;;;;;;;17.75;12.15;;;6.80;99.90;;;;;;4929304;29;20156;-76
2022/05/01 00:55:38;;;;;;;18.42;12.60;;;6.80;99.90;;;;;;4926651;29;20166;-76
2022/05/01 00:58:07;;;;;;;18.45;12.88;;;6.90;99.90;;;;;;4942856;28;20043;-76
2022/05/01 01:00:34;;;;;;;15.02;11.75;;;6.90;99.90;;;;;;4927655;29;20063;-76
2022/05/01 01:03:01;;;;;;;14.77;11.23;;;7.00;99.90;;;;;;4926687;29;20040;-76
2022/05/01 01:05:27;;;;;;;17.88;11.70;;;7.00;99.90;;;;;;4929570;29;20138;-76
2022/05/01 01:07:52;;;;;;;14.45;10.15;;;7.10;99.90;;;;;;4926940;29;20059;-76
2022/05/01 01:10:19;;;;;;;15.45;12.00;;;7.10;99.90;;;;;;4928423;29;20043;-76
2022/05/01 01:12:54;;;;;;;16.90;12.43;;;7.10;99.90;;;;;;4912630;29;20043;-76
2022/05/01 01:15:22;;;;;;;16.08;11.73;;;7.10;99.90;;;;;;4930059;29;20074;-76
2022/05/01 01:17:52;;;;;;;15.23;10.02;;;7.10;99.90;;;;;;4928742;29;20506;-76
2022/05/01 01:20:22;;;;;;;14.38;10.70;;;7.10;99.90;;;;;;4929602;29;20039;-76
2022/05/01 01:22:50;;;;;;;13.05;10.90;;;7.10;99.90;;;;;;4929275;29;20040;-76
2022/05/01 01:25:20;;;;;;;17.25;11.27;;;7.10;99.90;;;;;;4931656;28;20043;-76
2022/05/01 01:27:46;;;;;;;22.98;12.25;;;7.10;99.90;;;;;;4931058;29;20450;-74
2022/05/01 01:32:56;;;;;;;14.60;11.57;;;7.10;99.90;;;;;;4930255;29;20192;-76
2022/05/01 01:35:26;;;;;;;19.00;12.50;;;7.00;99.90;;;;;;4931016;29;20123;-76
2022/05/01 01:37:56;;;;;;;18.05;11.13;;;7.00;99.90;;;;;;4919678;29;20494;-76
2022/05/01 01:40:35;;;;;;;16.42;12.55;;;7.00;99.90;;;;;;4930444;29;20043;-76
2022/05/01 01:43:03;;;;;;;20.85;13.35;;;7.10;99.90;;;;;;4946756;28;21285;-76
2022/05/01 01:45:29;;;;;;;18.30;12.50;;;7.00;99.90;;;;;;4932091;29;20055;-76
2022/05/01 01:47:57;;;;;;;17.48;12.45;;;6.90;99.90;;;;;;4929904;29;20406;-76
2022/05/01 01:50:24;;;;;;;18.17;12.25;;;6.90;99.90;;;;;;4931816;29;20031;-76
2022/05/01 01:52:50;;;;;;;16.67;13.20;;;7.00;99.90;;;;;;4931970;29;20113;-76
2022/05/01 01:55:18;;;;;;;18.85;13.23;;;7.00;99.90;;;;;;4933207;29;20047;-76
2022/05/01 01:57:46;;;;;;;17.92;12.38;;;7.00;99.90;;;;;;4948081;28;20095;-76
2022/05/01 02:00:12;;;;;;;17.30;12.80;;;7.00;99.90;;;;;;4931409;29;20463;-76
2022/05/01 02:02:39;;;;;;;16.58;11.82;;;7.00;99.90;;;;;;4915226;29;20077;-76
2022/05/01 02:05:05;;;;;;;16.63;12.68;;;7.10;99.90;;;;;;4930801;29;20139;-76
2022/05/01 02:07:31;;;;;;;17.08;13.02;;;7.10;99.90;;;;;;4930331;29;20058;-76
2022/05/01 02:09:57;;;;;;;19.75;14.77;;;7.10;99.90;;;;;;4929926;29;20106;-76
2022/05/01 02:12:23;;;;;;;17.15;12.20;;;7.10;99.90;;;;;;4932945;29;20062;-76
2022/05/01 02:14:49;;;;;;;18.02;13.40;;;7.00;99.90;;;;;;4930186;29;20483;-76
2022/05/01 02:17:15;;;;;;;17.35;11.93;;;7.10;99.90;;;;;;4930431;29;20071;-76
2022/05/01 02:19:41;;;;;;;19.75;13.27;;;7.00;99.90;;;;;;4930814;29;20078;-76
2022/05/01 02:22:07;;;;;;;17.25;12.27;;;7.00;99.90;;;;;;4932084;29;20052;-76
2022/05/01 02:24:33;;;;;;;18.75;12.30;;;7.00;99.90;;;;;;4932044;29;20447;-76
2022/05/01 02:26:59;;;;;;;18.50;13.02;;;7.00;99.90;;;;;;4932184;29;20103;-76
2022/05/01 02:29:25;;;;;;;18.35;13.32;;;6.90;99.90;;;;;;4933057;29;20043;-76
2022/05/01 02:31:53;;;;;;;18.52;13.85;;;6.80;99.90;;;;;;4913915;29;20099;-76
2022/05/01 02:34:22;;;;;;;22.83;14.40;;;6.70;99.90;;;;;;4929281;29;20044;-76
2022/05/01 02:36:48;;;;;;;18.95;14.25;;;6.70;99.90;;;;;;4930534;29;20040;-76
2022/05/01 02:39:14;;;;;;;16.73;12.18;;;6.70;99.90;;;;;;4914361;29;20111;-77
2022/05/01 02:41:40;;;;;;;20.98;16.13;;;6.70;99.90;;;;;;4920547;29;20047;-76
2022/05/01 02:44:05;;;;;;;20.08;13.85;;;6.60;99.90;;;;;;4930405;29;20071;-77
2022/05/01 02:46:32;;;;;;;18.92;13.07;;;6.60;99.90;;;;;;4930046;29;20040;-76
2022/05/01 02:48:58;;;;;;;20.23;13.85;;;6.50;99.90;;;;;;4930634;29;20505;-76
2022/05/01 02:51:24;;;;;;;21.75;16.15;;;6.60;99.90;;;;;;4931158;29;20071;-77
2022/05/01 02:53:49;;;;;;;31.52;13.90;;;6.60;99.90;;;;;;4931622;29;20046;-76
2022/05/01 02:56:15;;;;;;;21.90;15.50;;;6.50;99.90;;;;;;4931193;29;20039;-76
2022/05/01 02:58:41;;;;;;;21.92;15.27;;;6.50;99.90;;;;;;4930998;29;20043;-76
2022/05/01 03:01:06;;;;;;;20.95;14.25;;;6.50;99.90;;;;;;4933435;29;20043;-76
2022/05/01 03:03:33;;;;;;;19.55;15.10;;;6.50;99.90;;;;;;4931063;29;20470;-77
2022/05/01 03:05:58;;;;;;;29.92;17.23;;;6.50;99.90;;;;;;4932434;29;20074;-76
2022/05/01 03:08:25;;;;;;;20.88;15.45;;;6.50;99.90;;;;;;4904373;29;20075;-77
2022/05/01 03:10:51;;;;;;;22.95;15.65;;;6.40;99.90;;;;;;4929589;29;20125;-76
2022/05/01 03:13:17;;;;;;;23.63;16.23;;;6.30;99.90;;;;;;4929030;29;20050;-77
2022/05/01 03:15:43;;;;;;;21.90;16.75;;;6.30;99.90;;;;;;4911645;29;20043;-76
2022/05/01 03:23:37;;;;;;;20.70;14.75;;;6.20;99.90;;;;;;4929379;29;20469;-76
2022/05/01 03:26:03;;;;;;;19.52;14.88;;;6.10;99.90;;;;;;4931067;29;20139;-77
2022/05/01 03:28:29;;;;;;;25.58;17.13;;;6.00;99.90;;;;;;4929839;29;20043;-77
2022/05/01 03:30:56;;;;;;;22.85;15.43;;;6.00;99.90;;;;;;4942911;28;20355;-77
2022/05/01 03:33:22;;;;;;;22.52;17.35;;;5.90;99.90;;;;;;4929480;29;20471;-76
2022/05/01 03:35:49;;;;;;;24.92;17.08;;;5.80;99.90;;;;;;4930805;29;20057;-76
2022/05/01 03:38:15;;;;;;;25.48;16.77;;;5.80;99.90;;;;;;4932362;29;20401;-77
2022/05/01 03:40:42;;;;;;;26.15;17.58;;;5.80;99.90;;;;;;4913538;29;20036;-76
2022/05/01 03:43:08;;;;;;;25.70;18.40;;;5.70;99.90;;;;;;4928717;29;20046;-76
2022/05/01 03:45:34;;;;;;;30.92;19.25;;;5.70;99.90;;;;;;4927550;29;20047;-77
2022/05/01 03:48:00;;;;;;;28.27;19.05;;;5.50;99.90;;;;;;4927366;29;20063;-76
2022/05/01 03:50:26;;;;;;;24.63;18.40;;;5.50;99.90;;;;;;4928975;29;20043;-76
2022/05/01 03:52:52;;;;;;;29.45;21.30;;;5.40;99.90;;;;;;4932435;29;20046;-77
2022/05/01 03:55:18;;;;;;;28.70;19.35;;;5.30;99.90;;;;;;4903636;29;20567;-77
2022/05/01 03:57:44;;;;;;;32.30;21.02;;;5.20;99.90;;;;;;4914707;29;20111;-76
2022/05/01 04:00:10;;;;;;;28.58;20.85;;;5.20;99.90;;;;;;4930269;29;20118;-77
2022/05/01 04:02:42;;;;;;;33.58;23.48;;;5.10;99.90;;;;;;4929569;29;20560;-76
2022/05/01 04:05:09;;;;;;;30.52;20.40;;;5.00;99.90;;;;;;4929956;29;20047;-77
2022/05/01 04:07:35;;;;;;;30.67;20.88;;;5.00;99.90;;;;;;4929616;29;20051;-76
2022/05/01 04:10:00;;;;;;;25.67;19.27;;;4.90;99.90;;;;;;4931525;29;20044;-76
2022/05/01 04:12:26;;;;;;;28.85;17.92;;;4.90;99.90;;;;;;4931801;29;20039;-76
2022/05/01 04:14:51;;;;;;;30.65;20.60;;;4.90;99.90;;;;;;4931423;29;20052;-77
2022/05/01 04:17:17;;;;;;;23.35;17.23;;;4.80;99.90;;;;;;4928665;29;20126;-76
2022/05/01 04:19:42;;;;;;;33.40;21.45;;;4.80;99.90;;;;;;4929412;29;20062;-76
2022/05/01 04:22:08;;;;;;;32.95;21.90;;;4.70;99.90;;;;;;4912923;29;20550;-77
2022/05/01 04:24:33;;;;;;;31.42;19.95;;;4.70;99.90;;;;;;4928675;29;20411;-77
2022/05/01 04:26:59;;;;;;;29.95;20.58;;;4.60;99.90;;;;;;4928057;29;20050;-78
2022/05/01 04:29:37;;;;;;;29.55;19.40;;;4.60;99.90;;;;;;4929061;29;20051;-76
2022/05/01 04:32:05;;;;;;;28.77;20.05;;;4.70;99.90;;;;;;4914339;29;20083;-78
2022/05/01 04:34:31;;;;;;;31.52;21.88;;;4.70;99.90;;;;;;4930810;29;20048;-77
2022/05/01 04:36:58;;;;;;;29.98;19.70;;;4.70;99.90;;;;;;4931589;29;20034;-77
2022/05/01 04:39:24;;;;;;;26.35;18.38;;;4.80;99.90;;;;;;4929798;29;20651;-77
2022/05/01 04:41:51;;;;;;;26.40;18.20;;;4.80;99.90;;;;;;4929858;29;20061;-78
2022/05/01 04:44:16;;;;;;;30.55;20.73;;;5.00;99.90;;;;;;4946703;28;20047;-77
2022/05/01 04:46:43;;;;;;;26.20;19.33;;;5.10;99.90;;;;;;4930354;29;20106;-77
2022/05/01 04:49:09;;;;;;;27.95;17.73;;;5.00;99.90;;;;;;4929498;29;20051;-77
2022/05/01 04:51:35;;;;;;;30.27;19.80;;;5.10;99.90;;;;;;4927430;29;20382;-77
2022/05/01 04:54:00;;;;;;;33.03;18.70;;;5.10;99.90;;;;;;4928596;29;20057;-78
2022/05/01 04:59:10;;;;;;;30.70;19.63;;;5.20;99.90;;;;;;4930782;29;20044;-77
2022/05/01 05:01:36;;;;;;;31.95;20.65;;;5.20;99.90;;;;;;4928180;29;20047;-77
2022/05/01 05:04:03;;;;;;;33.33;20.20;;;5.20;99.90;;;;;;4928306;29;20403;-77
2022/05/01 05:06:29;;;;;;;28.15;19.77;;;5.20;99.90;;;;;;4913347;29;20089;-77
2022/05/01 05:11:39;;;;;;;38.90;23.17;;;5.30;99.90;;;;;;4928379;29;20060;-78
2022/05/01 05:14:05;;;;;;;33.50;21.77;;;5.30;99.90;;;;;;4914734;29;20059;-77
2022/05/01 05:16:31;;;;;;;33.55;22.90;;;5.30;99.90;;;;;;4913751;29;20043;-77
2022/05/01 05:18:57;;;;;;;32.88;23.88;;;5.30;99.90;;;;;;4931490;29;20083;-77
2022/05/01 05:21:22;;;;;;;32.72;21.33;;;5.40;99.90;;;;;;4932231;29;20391;-77
2022/05/01 05:23:48;;;;;;;36.75;21.48;;;5.40;99.90;;;;;;4929140;29;20063;-78
2022/05/01 05:26:14;;;;;;;33.35;21.30;;;5.50;99.90;;;;;;4928645;29;20321;-78
2022/05/01 05:28:39;;;;;;;28.83;19.17;;;5.60;99.90;;;;;;4929582;29;20054;-77
2022/05/01 05:31:05;;;;;;;37.63;24.65;;;5.60;99.90;;;;;;4912535;29;20050;-77
2022/05/01 05:33:30;;;;;;;33.33;21.83;;;5.70;99.90;;;;;;4928847;29;20127;-78
2022/05/01 05:35:56;;;;;;;35.97;24.92;;;5.70;99.90;;;;;;4912937;29;20087;-78
2022/05/01 05:38:22;;;;;;;41.35;26.00;;;5.70;99.90;;;;;;4926938;29;20051;-78
2022/05/01 05:40:47;;;;;;;38.80;25.25;;;5.80;99.90;;;;;;4925835;29;20407;-77
2022/05/01 05:43:13;;;;;;;36.88;24.67;;;5.90;99.90;;;;;;4945141;28;20038;-78
2022/05/01 05:45:38;;;;;;;36.08;25.25;;;6.00;99.90;;;;;;4933304;29;20090;-77
2022/05/01 05:48:05;;;;;;;39.97;28.20;;;6.10;99.90;;;;;;4928430;29;20053;-78
2022/05/01 05:50:30;;;;;;;41.17;25.70;;;6.20;99.90;;;;;;4929153;29;20670;-78
2022/05/01 05:52:56;;;;;;;37.60;24.67;;;6.30;99.90;;;;;;4928934;29;20040;-78
2022/05/01 05:55:21;;;;;;;33.47;22.95;;;6.50;99.90;;;;;;4931454;29;20066;-78
2022/05/01 05:57:47;;;;;;;33.58;23.42;;;6.60;99.90;;;;;;4927878;29;20079;-78
2022/05/01 06:00:13;;;;;;;28.52;20.70;;;6.80;99.90;;;;;;4928298;29;20044;-78
2022/05/01 06:02:39;;;;;;;32.28;21.20;;;6.90;99.90;;;;;;4943682;28;20518;-79
2022/05/01 06:05:06;;;;;;;29.80;22.27;;;7.10;99.90;;;;;;4942568;28;20095;-78
2022/05/01 06:07:32;;;;;;;25.02;19.25;;;7.20;99.90;;;;;;4928673;29;20403;-79
2022/05/01 06:09:58;;;;;;;26.20;20.40;;;7.30;99.90;;;;;;4928364;29;20055;-78
2022/05/01 06:12:24;;;;;;;24.42;18.20;;;7.50;99.90;;;;;;4931441;29;20528;-78
2022/05/01 06:14:49;;;;;;;25.17;18.20;;;7.60;99.90;;;;;;4930599;29;20062;-78
2022/05/01 06:17:15;;;;;;;28.20;19.25;;;7.70;99.90;;;;;;4935042;29;20046;-78
2022/05/01 06:19:41;;;;;;;22.33;18.05;;;7.80;99.90;;;;;;4933834;29;20038;-78
2022/05/01 06:22:06;;;;;;;22.83;17.17;;;7.90;99.90;;;;;;4933726;29;20517;-79
2022/05/01 06:24:32;;;;;;;21.63;17.52;;;8.10;99.90;;;;;;4912442;29;20524;-78
2022/05/01 06:26:58;;;;;;;24.17;18.60;;;8.10;99.90;;;;;;4917598;29;20044;-79
2022/05/01 06:29:24;;;;;;;20.77;15.45;;;8.20;99.90;;;;;;4934206;29;20487;-79
2022/05/01 06:31:51;;;;;;;21.48;16.73;;;8.30;99.90;;;;;;4935661;29;20040;-77
2022/05/01 06:34:17;;;;;;;21.50;15.85;;;8.40;99.90;;;;;;4929542;29;20047;-77
2022/05/01 06:36:43;;;;;;;22.73;16.05;;;8.50;99.90;;;;;;4930186;29;20502;-77
2022/05/01 06:39:11;;;;;;;18.98;13.85;;;8.60;99.90;;;;;;4918544;29;20048;-77
2022/05/01 06:41:38;;;;;;;21.55;14.70;;;8.70;99.90;;;;;;4932107;29;20392;-77
2022/05/01 06:44:03;;;;;;;19.75;15.48;;;8.80;99.90;;;;;;4933135;29;20071;-78
2022/05/01 06:46:30;;;;;;;16.70;12.30;;;8.90;99.90;;;;;;4934064;29;20086;-77
2022/05/01 06:48:55;;;;;;;11.55;9.32;;;9.00;99.90;;;;;;4933902;29;20055;-77
2022/05/01 06:51:21;;;;;;;12.20;10.20;;;9.10;99.90;;;;;;4931624;29;20044;-78
2022/05/01 06:53:46;;;;;;;15.27;12.35;;;9.20;99.90;;;;;;4917698;29;20036;-78
2022/05/01 06:56:12;;;;;;;12.77;9.60;;;9.40;99.90;;;;;;4929289;29;20126;-78
2022/05/01 06:58:37;;;;;;;8.57;5.95;;;9.60;99.90;;;;;;4928061;29;20180;-79
2022/05/01 07:01:03;;;;;;;9.98;6.05;;;9.80;99.90;;;;;;4918177;29;20094;-79
2022/05/01 07:03:29;;;;;;;5.15;3.95;;;10.00;99.90;;;;;;4933284;29;20044;-78
2022/05/01 07:05:54;;;;;;;7.43;4.22;;;10.20;99.90;;;;;;4933205;29;20055;-79
2022/05/01 07:08:20;;;;;;;10.20;6.07;;;10.30;99.90;;;;;;4932404;29;20049;-78
2022/05/01 07:10:46;;;;;;;9.55;6.47;;;10.40;99.90;;;;;;4925759;29;20048;-78
2022/05/01 07:13:11;;;;;;;4.82;3.30;;;10.50;99.90;;;;;;4933639;29;20040;-79
2022/05/01 07:15:38;;;;;;;3.78;3.28;;;10.80;99.90;;;;;;4929494;29;20036;-78
2022/05/01 07:18:04;;;;;;;10.10;5.00;;;10.80;99.90;;;;;;4924257;29;20048;-78
2022/05/01 07:20:33;;;;;;;10.18;5.78;;;10.90;99.90;;;;;;4934078;29;20040;-79
2022/05/01 07:22:58;;;;;;;9.82;7.15;;;11.10;99.90;;;;;;4927879;29;20067;-78
2022/05/01 07:25:24;;;;;;;13.90;8.77;;;11.20;99.90;;;;;;4932066;29;20187;-78
2022/05/01 07:27:49;;;;;;;8.27;7.10;;;11.30;99.90;;;;;;4937305;29;20039;-79
2022/05/01 07:30:15;;;;;;;18.70;11.50;;;11.50;99.90;;;;;;4936106;29;20047;-79
2022/05/01 07:32:41;;;;;;;13.65;9.45;;;11.80;99.90;;;;;;4933824;29;20113;-78
2022/05/01 07:35:07;;;;;;;10.45;8.23;;;11.70;99.90;;;;;;4917650;29;20468;-78
2022/05/01 07:37:32;;;;;;;9.55;8.55;;;11.70;99.90;;;;;;4929354;29;20079;-78
2022/05/01 07:39:58;;;;;;;7.45;5.90;;;11.80;99.90;;;;;;4933263;29;20119;-78
2022/05/01 07:42:23;;;;;;;7.78;6.32;;;11.80;99.90;;;;;;4930868;29;20048;-78
2022/05/01 07:44:50;;;;;;;11.13;6.45;;;11.90;99.90;;;;;;4932041;29;20153;-79
2022/05/01 07:47:16;;;;;;;10.15;7.03;;;12.00;99.90;;;;;;4930186;29;20430;-78
2022/05/01 07:49:41;;;;;;;9.13;7.10;;;12.30;99.90;;;;;;4913042;29;20039;-78
2022/05/01 07:52:08;;;;;;;7.93;6.43;;;12.30;99.90;;;;;;4925729;29;20221;-78
2022/05/01 07:54:33;;;;;;;8.55;6.55;;;12.40;99.90;;;;;;4917182;29;20089;-78
2022/05/01 07:56:59;;;;;;;7.28;5.85;;;12.80;99.90;;;;;;4932166;29;20047;-78
2022/05/01 07:59:24;;;;;;;8.57;6.13;;;12.80;98.90;;;;;;4932627;29;20071;-80
2022/05/01 08:01:50;;;;;;;8.90;5.97;;;12.90;97.70;;;;;;4926379;29;20040;-78
2022/05/01 08:04:28;;;;;;;6.22;5.07;;;13.00;97.80;;;;;;4917729;29;20040;-78
2022/05/01 08:07:00;;;;;;;6.15;5.55;;;13.30;97.20;;;;;;4926063;29;20079;-79
2022/05/01 08:09:27;;;;;;;10.15;6.10;;;13.40;95.80;;;;;;4911523;29;20483;-77
2022/05/01 08:11:54;;;;;;;8.43;4.80;;;13.70;94.40;;;;;;4936697;29;20058;-78
2022/05/01 08:14:21;;;;;;;4.82;3.30;;;13.80;93.50;;;;;;4941177;29;20478;-78
2022/05/01 08:16:47;;;;;;;6.20;3.92;;;14.10;90.50;;;;;;4926612;29;20044;-79
2022/05/01 08:21:56;;;;;;;9.63;7.97;;;14.70;86.90;;;;;;4927760;29;20510;-78
2022/05/01 08:24:22;;;;;;;214.52;133.07;;;14.70;82.80;;;;;;4940314;29;20490;-77
2022/05/01 08:26:48;;;;;;;41.88;24.75;;;14.60;81.10;;;;;;4940500;29;20047;-78
2022/05/01 08:29:15;;;;;;;174.43;123.32;;;14.70;81.00;;;;;;4934562;29;20122;-78
2022/05/01 08:31:43;;;;;;;97.28;86.57;;;14.70;80.90;;;;;;4934945;29;20403;-78
2022/05/01 08:34:10;;;;;;;7.20;5.65;;;15.00;81.90;;;;;;4934237;29;20043;-77
2022/05/01 08:36:36;;;;;;;5.20;3.63;;;15.00;81.00;;;;;;4957576;23;20573;-79
2022/05/01 08:39:03;;;;;;;4.00;3.13;;;14.80;79.20;;;;;;4932926;29;20042;-79
2022/05/01 08:41:30;;;;;;;3.20;2.47;;;14.50;77.40;;;;;;4928831;29;20114;-78
2022/05/01 08:44:00;;;;;;;4.32;3.10;;;14.40;77.80;;;;;;4927459;29;20383;-78
2022/05/01 08:46:51;;;;;;;3.78;3.25;;;14.30;76.20;;;;;;4926542;29;20480;-78
2022/05/01 08:49:19;;;;;;;5.78;2.95;;;14.20;74.50;;;;;;4929189;29;20066;-78
2022/05/01 08:51:46;;;;;;;3.58;1.90;;;14.00;76.50;;;;;;4926089;29;20058;-78
2022/05/01 08:54:15;;;;;;;4.18;1.67;;;13.80;75.60;;;;;;4925092;29;20119;-77
2022/05/01 08:56:43;;;;;;;4.45;2.60;;;13.60;76.70;;;;;;4925819;29;20332;-78
2022/05/01 08:59:17;;;;;;;3.38;3.00;;;13.50;78.40;;;;;;4928282;29;20047;-78
2022/05/01 09:01:44;;;;;;;4.20;2.83;;;13.50;77.50;;;;;;4924391;29;20047;-78
2022/05/01 09:04:12;;;;;;;5.28;3.88;;;13.60;79.30;;;;;;4927187;29;20075;-78
2022/05/01 09:06:39;;;;;;;4.32;2.97;;;13.90;79.40;;;;;;4931492;28;20067;-78
2022/05/01 09:09:09;;;;;;;4.47;2.80;;;14.50;79.10;;;;;;4925649;29;20187;-79
2022/05/01 09:14:25;;;;;;;238.07;160.45;;;15.00;76.60;;;;;;4927868;29;20059;-79
2022/05/01 09:17:09;;;;;;;17.05;10.25;;;15.20;74.70;;;;;;4927582;29;20059;-79
2022/05/01 09:19:35;;;;;;;411.13;297.77;;;15.30;71.50;;;;;;4925799;29;20082;-78
2022/05/01 09:22:01;;;;;;;25.67;18.90;;;15.30;72.40;;;;;;4927976;29;20039;-78
2022/05/01 09:24:28;;;;;;;87.10;61.13;;;15.50;70.70;;;;;;4923829;29;20054;-79
2022/05/01 09:26:55;;;;;;;7.22;6.47;;;15.80;70.00;;;;;;4923767;29;20048;-79
2022/05/01 09:29:22;;;;;;;11.85;10.63;;;16.10;69.10;;;;;;4927672;29;20047;-80
2022/05/01 09:31:50;;;;;;;4.20;2.22;;;16.40;69.10;;;;;;4926541;29;20079;-79
2022/05/01 09:34:31;;;;;;;3.05;1.58;;;16.40;67.70;;;;;;4929412;29;20122;-79
2022/05/01 09:36:58;;;;;;;4.25;2.78;;;16.00;65.40;;;;;;4923761;29;20051;-79
2022/05/01 09:39:31;;;;;;;3.78;2.75;;;15.70;69.20;;;;;;4927789;29;20040;-79
2022/05/01 09:42:15;;;;;;;5.35;2.83;;;15.50;67.60;;;;;;4926050;29;20063;-78
2022/05/01 09:44:40;;;;;;;5.03;3.40;;;15.40;67.10;;;;;;4926479;29;20138;-78
2022/05/01 09:47:07;;;;;;;3.65;2.60;;;15.00;67.60;;;;;;4928943;29;20499;-79
2022/05/01 09:49:47;;;;;;;2.70;1.98;;;15.00;68.30;;;;;;4932768;28;20048;-79
2022/05/01 09:52:13;;;;;;;3.55;2.42;;;15.20;68.20;;;;;;4930059;29;20284;-77
2022/05/01 09:54:38;;;;;;;5.03;2.80;;;15.30;69.50;;;;;;4930181;29;20044;-78
2022/05/01 09:57:05;;;;;;;6.10;3.35;;;15.20;68.00;;;;;;4931451;29;20071;-79
2022/05/01 09:59:45;;;;;;;4.40;3.13;;;15.40;67.90;;;;;;4930454;29;20036;-77
2022/05/01 10:02:11;;;;;;;3.28;2.25;;;15.70;66.50;;;;;;4931039;29;20082;-78
2022/05/01 10:04:37;;;;;;;4.78;2.55;;;15.70;66.60;;;;;;4932512;29;20051;-78
2022/05/01 10:07:05;;;;;;;2.75;2.33;;;15.40;66.00;;;;;;4943688;28;20102;-78
2022/05/01 10:09:35;;;;;;;2.58;2.17;;;15.50;67.30;;;;;;4935495;29;20057;-78
2022/05/01 10:12:06;;;;;;;3.53;2.35;;;15.40;66.10;;;;;;4922421;29;20062;-79
2022/05/01 10:14:32;;;;;;;3.42;1.63;;;15.40;65.80;;;;;;4918925;29;20051;-79
2022/05/01 10:16:58;;;;;;;5.65;2.70;;;15.60;66.00;;;;;;4915717;29;20043;-79
2022/05/01 10:19:24;;;;;;;2.15;1.65;;;15.90;66.30;;;;;;4928799;29;20553;-78
2022/05/01 10:21:52;;;;;;;5.75;2.67;;;16.10;65.10;;;;;;4933205;29;20123;-79
2022/05/01 10:24:19;;;;;;;3.83;1.88;;;16.40;64.50;;;;;;4930787;29;20047;-79
2022/05/01 10:27:00;;;;;;;4.32;2.83;;;16.50;64.10;;;;;;4930276;28;20547;-78
2022/05/01 10:32:52;;;;;;;200.73;129.48;;;17.10;61.90;;;;;;4930145;29;20082;-78
2022/05/01 10:35:59;;;;;;;33.03;22.52;;;17.60;63.00;;;;;;4927726;29;20521;-79
2022/05/01 10:38:50;;;;;;;201.30;161.45;;;17.50;59.00;;;;;;4904608;29;20495;-78
2022/05/01 10:41:17;;;;;;;11.02;9.95;;;17.40;60.10;;;;;;4930499;29;20055;-79
2022/05/01 10:43:54;;;;;;;5.22;3.20;;;17.40;61.30;;;;;;4933704;29;20099;-80
2022/05/01 10:46:20;;;;;;;4.20;3.08;;;17.20;59.80;;;;;;4935243;29;20489;-80
2022/05/01 10:48:45;;;;;;;3.30;2.72;;;17.20;62.50;;;;;;4933709;29;20055;-79
2022/05/01 10:51:38;;;;;;;4.45;2.08;;;17.40;61.80;;;;;;4934057;29;20078;-80
2022/05/01 10:54:10;;;;;;;2.92;2.15;;;17.10;58.40;;;;;;4943884;29;20412;-80
2022/05/01 10:56:37;;;;;;;2.33;1.65;;;16.90;60.90;;;;;;4943783;28;20043;-79
2022/05/01 10:59:39;;;;;;;2.28;1.67;;;16.90;61.40;;;;;;4945421;28;20147;-80
2022/05/01 11:02:22;;;;;;;3.08;1.58;;;17.10;59.90;;;;;;4954265;29;20083;-79
2022/05/01 11:04:49;;;;;;;3.17;2.60;;;17.20;58.70;;;;;;4953433;29;20050;-79
2022/05/01 11:07:16;;;;;;;2.58;1.65;;;17.00;60.00;;;;;;4956419;28;20043;-79
2022/05/01 11:09:47;;;;;;;3.80;2.33;;;16.90;60.00;;;;;;4954984;29;20050;-81
2022/05/01 11:12:15;;;;;;;2.88;1.98;;;17.10;59.70;;;;;;4954659;29;20399;-80
2022/05/01 11:14:52;;;;;;;2.88;2.05;;;17.10;60.10;;;;;;4956625;29;20063;-80
2022/05/01 11:17:50;;;;;;;3.55;2.33;;;17.20;59.40;;;;;;4942331;29;20041;-80
2022/05/01 11:20:19;;;;;;;4.88;2.30;;;17.30;57.70;;;;;;4957872;29;20043;-80
2022/05/01 11:22:45;;;;;;;2.97;2.50;;;17.30;60.20;;;;;;4958628;29;20629;-80
2022/05/01 11:25:11;;;;;;;3.17;2.20;;;17.20;59.00;;;;;;4959538;29;20122;-81
2022/05/01 11:27:51;;;;;;;2.55;2.13;;;17.10;58.70;;;;;;4958063;28;20059;-80
2022/05/01 11:30:31;;;;;;;5.47;2.28;;;17.00;58.90;;;;;;4959210;29;20046;-80
2022/05/01 11:33:01;;;;;;;5.82;1.90;;;16.90;58.50;;;;;;4961226;29;20047;-80
2022/05/01 11:35:58;;;;;;;3.40;1.88;;;16.60;59.90;;;;;;4957197;28;20072;-81
2022/05/01 11:38:30;;;;;;;5.40;2.00;;;16.50;58.90;;;;;;4957517;29;20035;-80
2022/05/01 11:40:57;;;;;;;3.13;1.40;;;16.50;60.60;;;;;;4956143;29;20271;-79
2022/05/01 11:43:23;;;;;;;5.57;2.10;;;16.40;60.00;;;;;;4954217;29;20043;-79
2022/05/01 11:45:49;;;;;;;2.00;1.60;;;16.20;60.20;;;;;;4953823;28;20043;-79
2022/05/01 11:48:19;;;;;;;2.67;2.08;;;15.90;60.30;;;;;;4952713;29;20043;-79
2022/05/01 11:50:48;;;;;;;4.25;1.83;;;15.60;59.60;;;;;;4952981;29;20050;-79
2022/05/01 11:53:23;;;;;;;5.53;1.88;;;15.30;60.60;;;;;;4953201;29;20402;-79
2022/05/01 12:04:34;;;;;;;2.47;1.50;;;14.90;60.50;;;;;;4954624;29;20055;-81
2022/05/01 12:07:08;;;;;;;5.22;2.70;;;14.90;61.40;;;;;;4955771;28;20047;-80
2022/05/01 12:09:39;;;;;;;5.13;1.92;;;15.00;61.70;;;;;;4955600;28;20043;-80
2022/05/01 12:12:10;;;;;;;2.60;1.77;;;15.10;61.70;;;;;;4956005;29;20047;-80
2022/05/01 12:14:36;;;;;;;3.65;1.77;;;15.20;61.00;;;;;;4955052;29;20050;-80
2022/05/01 12:17:04;;;;;;;3.40;1.92;;;15.10;61.80;;;;;;4942695;28;20039;-80
2022/05/01 12:19:35;;;;;;;3.53;2.22;;;15.20;61.60;;;;;;4921444;29;20485;-81
2022/05/01 12:22:01;;;;;;;2.28;1.45;;;15.30;60.90;;;;;;4935382;29;20054;-80
2022/05/01 12:24:27;;;;;;;3.20;2.22;;;15.50;60.60;;;;;;4937170;29;20043;-80
2022/05/01 12:26:53;;;;;;;2.65;1.85;;;15.70;60.80;;;;;;4935806;29;20046;-80
2022/05/01 12:29:19;;;;;;;4.40;2.22;;;15.70;60.00;;;;;;4935972;29;20040;-80
2022/05/01 12:32:02;;;;;;;4.88;2.10;;;15.70;59.80;;;;;;4946644;29;20099;-80
2022/05/01 12:34:29;;;;;;;4.30;2.13;;;15.90;60.60;;;;;;4954827;29;20051;-80
2022/05/01 12:36:56;;;;;;;3.05;2.45;;;16.10;61.60;;;;;;4955129;28;20046;-81
2022/05/01 12:39:22;;;;;;;4.45;2.67;;;16.20;61.10;;;;;;4955334;29;20039;-81
2022/05/01 12:45:09;;;;;;;3.63;1.85;;;16.40;61.60;;;;;;4935446;29;20048;-81
2022/05/01 12:47:39;;;;;;;3.03;1.77;;;16.40;59.20;;;;;;4935428;29;20066;-80
2022/05/01 12:50:08;;;;;;;3.88;1.60;;;16.50;60.60;;;;;;4934432;29;20054;-81
2022/05/01 12:52:35;;;;;;;3.30;2.05;;;16.70;59.40;;;;;;4934326;29;20047;-81
2022/05/01 12:55:05;;;;;;;2.78;2.33;;;17.00;59.70;;;;;;4934472;29;20063;-81
2022/05/01 12:57:34;;;;;;;3.50;2.15;;;17.10;57.60;;;;;;4934379;29;20116;-80
2022/05/01 13:00:00;;;;;;;2.22;1.23;;;17.30;58.80;;;;;;4934230;29;20515;-80
2022/05/01 13:02:25;;;;;;;2.75;2.20;;;17.60;58.90;;;;;;4933910;29;20039;-81
2022/05/01 13:04:58;;;;;;;4.43;2.75;;;18.00;57.50;;;;;;4934529;29;20039;-80
2022/05/01 13:07:34;;;;;;;2.58;2.00;;;18.40;53.90;;;;;;4940267;29;20043;-80
2022/05/01 13:10:01;;;;;;;5.38;1.92;;;18.60;54.30;;;;;;4939381;29;20265;-79
2022/05/01 13:12:34;;;;;;;3.78;1.95;;;18.60;54.70;;;;;;4934979;29;20047;-79
2022/05/01 13:15:04;;;;;;;2.05;1.50;;;18.80;53.30;;;;;;4933332;29;20040;-78
2022/05/01 13:17:31;;;;;;;4.78;2.30;;;18.60;54.20;;;;;;4952286;28;20043;-80
2022/05/01 13:19:58;;;;;;;5.35;2.17;;;18.20;54.10;;;;;;4945149;29;20442;-80
2022/05/01 13:22:24;;;;;;;11.25;8.13;;;18.00;54.30;;;;;;4923265;29;20035;-80
2022/05/01 13:24:52;;;;;;;12.15;6.63;;;18.00;54.50;;;;;;4942606;29;20071;-80